Time;durP1;ratioP1;P1;durP2;ratioP2;P2;SDS_P1;SDS_P2;PMS_P1;PMS_P2;Temp;Humidity;BMP_temperature;BMP_pressure;BME280_temperature;BME280_humidity;BME280_pressure;Samples;Min_cycle;Max_cycle;Signal;HPM_P1;HPM_P2
2021/06/04 00:00:57;;;;;;;13.33;9.77;;;;;;;10.37;66.75;99776.17;2281443;77;20978;-81
2021/06/04 00:03:58;;;;;;;10.43;9.33;;;;;;;10.32;66.69;99775.16;2281270;77;20958;-82
2021/06/04 00:06:59;;;;;;;12.17;9.80;;;;;;;10.23;66.81;99768.38;2281191;77;21406;-81
2021/06/04 00:10:00;;;;;;;12.27;10.30;;;;;;;10.17;67.10;99768.64;2281433;78;21007;-80
2021/06/04 00:13:01;;;;;;;12.97;9.53;;;;;;;10.09;67.04;99765.36;2281390;78;20987;-81
2021/06/04 00:16:02;;;;;;;14.13;9.97;;;;;;;10.02;67.26;99768.20;2281344;78;20947;-81
2021/06/04 00:19:03;;;;;;;12.13;10.43;;;;;;;9.97;67.56;99772.41;2281254;78;20998;-80
2021/06/04 00:22:04;;;;;;;15.90;10.00;;;;;;;9.93;67.63;99773.58;2281260;78;20946;-81
2021/06/04 00:25:06;;;;;;;13.87;9.90;;;;;;;9.88;67.80;99773.45;2281301;78;20950;-80
2021/06/04 00:28:07;;;;;;;13.20;10.43;;;;;;;9.87;68.03;99764.73;2281409;78;21407;-80
2021/06/04 00:31:08;;;;;;;11.17;9.97;;;;;;;9.92;68.17;99765.30;2281504;78;21026;-80
2021/06/04 00:34:09;;;;;;;14.57;10.30;;;;;;;9.93;68.15;99765.76;2281580;78;20950;-80
2021/06/04 00:37:10;;;;;;;12.63;9.97;;;;;;;9.87;68.13;99766.47;2278988;77;21052;-80
2021/06/04 00:40:11;;;;;;;12.97;10.03;;;;;;;9.81;68.12;99766.28;2281650;77;20930;-81
2021/06/04 00:43:12;;;;;;;13.43;10.00;;;;;;;9.80;68.34;99767.13;2280936;78;20903;-80
2021/06/04 00:46:13;;;;;;;20.67;10.30;;;;;;;9.81;68.59;99765.86;2281416;78;20941;-80
2021/06/04 00:49:14;;;;;;;11.60;10.40;;;;;;;9.79;68.60;99760.14;2281514;78;20961;-80
2021/06/04 00:52:15;;;;;;;17.73;10.10;;;;;;;9.78;68.44;99765.77;2281320;78;21329;-81
2021/06/04 00:55:17;;;;;;;10.70;9.60;;;;;;;9.69;68.52;99767.23;2281324;78;21057;-80
2021/06/04 00:58:18;;;;;;;46.00;11.60;;;;;;;9.58;68.63;99760.39;2281551;78;21013;-80
2021/06/04 01:01:19;;;;;;;12.30;10.10;;;;;;;9.52;68.97;99761.05;2281426;78;20938;-81
2021/06/04 01:04:20;;;;;;;19.60;14.30;;;;;;;9.51;69.09;99764.50;2281268;78;21302;-81
2021/06/04 01:07:21;;;;;;;12.70;10.63;;;;;;;9.53;69.28;99761.94;2281280;78;21050;-81
2021/06/04 01:10:22;;;;;;;12.17;10.40;;;;;;;9.64;69.62;99763.17;2281222;78;20996;-80
2021/06/04 01:13:23;;;;;;;14.67;10.43;;;;;;;9.63;69.09;99764.44;2281486;78;21044;-80
2021/06/04 01:16:24;;;;;;;15.60;10.27;;;;;;;9.46;68.96;99765.19;2281318;78;21377;-81
2021/06/04 01:19:26;;;;;;;16.20;10.57;;;;;;;9.37;69.11;99757.97;2281238;78;21318;-79
2021/06/04 01:22:27;;;;;;;15.73;10.70;;;;;;;9.36;69.19;99760.11;2281426;78;20974;-80
2021/06/04 01:25:28;;;;;;;15.00;10.70;;;;;;;9.27;69.06;99762.43;2281299;78;20950;-79
2021/06/04 01:28:29;;;;;;;11.53;10.27;;;;;;;9.24;69.17;99764.94;2281411;78;20938;-80
2021/06/04 01:31:30;;;;;;;12.97;10.23;;;;;;;9.26;69.34;99761.55;2281221;78;21374;-80
2021/06/04 01:34:32;;;;;;;12.67;10.20;;;;;;;9.26;69.47;99760.25;2281218;78;20903;-79
2021/06/04 01:37:33;;;;;;;13.03;11.20;;;;;;;9.28;69.39;99760.30;2282983;77;21012;-80
2021/06/04 01:40:35;;;;;;;13.77;10.60;;;;;;;9.19;69.08;99766.52;2290829;77;21007;-80
2021/06/04 01:43:36;;;;;;;12.60;10.60;;;;;;;9.08;69.13;99774.41;2291234;78;20983;-80
2021/06/04 01:46:37;;;;;;;13.23;10.57;;;;;;;8.97;69.01;99773.17;2291287;78;20916;-79
2021/06/04 01:49:38;;;;;;;14.77;10.67;;;;;;;8.85;69.21;99767.14;2291311;78;20975;-79
2021/06/04 01:52:39;;;;;;;12.63;11.27;;;;;;;8.77;69.37;99763.39;2291315;78;20928;-80
2021/06/04 01:55:40;;;;;;;17.57;11.27;;;;;;;8.67;69.68;99768.70;2291251;78;20960;-80
2021/06/04 01:58:41;;;;;;;13.87;11.07;;;;;;;8.59;70.03;99760.61;2291174;78;20940;-81
2021/06/04 02:01:42;;;;;;;16.83;10.50;;;;;;;8.63;70.03;99759.88;2291259;78;21324;-82
2021/06/04 02:04:43;;;;;;;12.83;11.13;;;;;;;8.63;69.81;99762.90;2291235;78;20987;-81
2021/06/04 02:07:44;;;;;;;15.27;11.00;;;;;;;8.59;69.97;99766.23;2291271;78;20988;-80
2021/06/04 02:10:44;;;;;;;13.17;10.50;;;;;;;8.54;69.77;99777.78;2291358;78;20956;-80
2021/06/04 02:13:45;;;;;;;12.30;10.90;;;;;;;8.41;69.62;99782.50;2291214;78;21031;-81
2021/06/04 02:16:46;;;;;;;14.43;10.80;;;;;;;8.37;70.27;99780.21;2291395;78;20995;-81
2021/06/04 02:19:48;;;;;;;16.53;10.90;;;;;;;8.37;70.30;99776.72;2291251;78;20952;-80
2021/06/04 02:22:49;;;;;;;15.27;11.13;;;;;;;8.31;70.16;99783.45;2291166;78;21320;-80
2021/06/04 02:25:50;;;;;;;15.57;10.77;;;;;;;8.27;70.33;99775.48;2291217;78;20994;-80
2021/06/04 02:28:51;;;;;;;11.30;10.03;;;;;;;8.26;70.55;99779.80;2291287;78;20932;-81
2021/06/04 02:31:52;;;;;;;12.20;10.80;;;;;;;8.31;70.65;99778.66;2290959;78;21385;-82
2021/06/04 02:34:53;;;;;;;22.13;12.93;;;;;;;8.25;70.35;99776.73;2291005;78;20932;-82
2021/06/04 02:37:54;;;;;;;40.53;31.70;;;;;;;8.23;70.41;99778.39;2290981;77;21862;-82
2021/06/04 02:40:55;;;;;;;16.23;11.90;;;;;;;8.21;70.52;99780.05;2290965;78;20944;-81
2021/06/04 02:43:56;;;;;;;17.20;11.17;;;;;;;8.20;70.60;99771.78;2291337;78;21324;-81
2021/06/04 02:46:57;;;;;;;13.40;10.83;;;;;;;8.27;70.64;99774.18;2291450;78;21355;-82
2021/06/04 02:49:58;;;;;;;15.13;10.47;;;;;;;8.24;70.17;99774.95;2291221;78;21393;-80
2021/06/04 02:52:59;;;;;;;12.93;10.20;;;;;;;8.23;70.51;99773.59;2291033;78;20941;-81
2021/06/04 02:56:00;;;;;;;12.67;10.50;;;;;;;8.22;70.32;99770.12;2290721;78;21296;-81
2021/06/04 02:59:01;;;;;;;11.80;10.47;;;;;;;8.21;70.09;99774.84;2291120;78;20948;-81
2021/06/04 03:02:03;;;;;;;11.57;10.40;;;;;;;8.16;69.95;99777.70;2290894;78;20991;-82
2021/06/04 03:05:04;;;;;;;13.00;10.17;;;;;;;8.18;70.20;99785.14;2290998;78;21348;-81
2021/06/04 03:08:06;;;;;;;13.20;11.13;;;;;;;8.24;70.35;99776.25;2290909;78;21424;-81
2021/06/04 03:11:07;;;;;;;12.73;10.13;;;;;;;8.26;70.27;99779.80;2290839;78;20997;-82
2021/06/04 03:14:08;;;;;;;12.53;9.73;;;;;;;8.31;70.47;99777.36;2291081;78;20982;-82
2021/06/04 03:17:08;;;;;;;11.90;10.63;;;;;;;8.35;70.30;99773.19;2290940;78;21012;-82
2021/06/04 03:20:10;;;;;;;14.70;10.33;;;;;;;8.36;70.14;99773.23;2291078;78;20917;-81
2021/06/04 03:23:10;;;;;;;15.30;10.30;;;;;;;8.34;69.99;99776.20;2290815;78;21360;-84
2021/06/04 03:26:11;;;;;;;12.30;10.80;;;;;;;8.40;70.21;99775.53;2291015;78;21034;-83
2021/06/04 03:29:12;;;;;;;12.33;10.27;;;;;;;8.45;70.29;99773.98;2290974;78;20975;-84
2021/06/04 03:32:13;;;;;;;25.17;10.90;;;;;;;8.52;70.30;99770.75;2290851;78;20963;-84
2021/06/04 03:35:14;;;;;;;48.50;34.83;;;;;;;8.56;70.40;99776.53;2290959;78;20952;-83
2021/06/04 03:38:16;;;;;;;25.97;14.13;;;;;;;8.62;70.21;99776.33;2290557;78;21072;-84
2021/06/04 03:41:17;;;;;;;17.17;10.43;;;;;;;8.73;70.47;99774.13;2290789;78;21003;-83
2021/06/04 03:44:19;;;;;;;12.00;10.63;;;;;;;8.81;70.34;99775.27;2290751;78;21435;-84
2021/06/04 03:47:20;;;;;;;14.30;10.33;;;;;;;8.88;70.39;99776.36;2290965;78;20909;-84
2021/06/04 03:50:21;;;;;;;11.40;10.27;;;;;;;8.95;70.31;99777.03;2290849;78;21352;-84
2021/06/04 03:53:22;;;;;;;13.77;10.40;;;;;;;9.01;70.13;99773.32;2290820;78;20955;-83
2021/06/04 03:56:23;;;;;;;12.37;9.77;;;;;;;9.14;70.13;99774.60;2290821;78;20960;-85
2021/06/04 03:59:24;;;;;;;11.47;10.27;;;;;;;9.37;70.31;99774.91;2290952;78;20952;-85
2021/06/04 04:02:25;;;;;;;14.43;10.80;;;;;;;9.59;70.18;99769.97;2291137;78;20988;-83
2021/06/04 04:05:25;;;;;;;33.97;11.93;;;;;;;9.83;69.93;99772.43;2291283;78;20946;-84
2021/06/04 04:08:27;;;;;;;13.17;11.17;;;;;;;10.09;69.98;99779.28;2290946;78;21016;-83
2021/06/04 04:11:27;;;;;;;13.10;10.53;;;;;;;10.39;69.67;99775.37;2291043;78;20932;-84
2021/06/04 04:14:28;;;;;;;185.30;23.57;;;;;;;10.71;69.56;99778.87;2291568;77;21176;-83
2021/06/04 04:17:29;;;;;;;20.00;10.40;;;;;;;11.03;69.09;99777.49;2291642;78;21018;-82
2021/06/04 04:20:30;;;;;;;50.80;12.87;;;;;;;11.27;68.63;99778.52;2291959;78;21177;-79
2021/06/04 04:23:31;;;;;;;16.00;10.80;;;;;;;11.44;68.38;99782.02;2292025;78;20927;-82
2021/06/04 04:26:33;;;;;;;12.07;10.23;;;;;;;11.56;68.23;99782.72;2291540;78;20980;-82
2021/06/04 04:29:33;;;;;;;13.98;10.53;;;;;;;11.91;68.68;99777.41;2291744;78;20944;-84
2021/06/04 04:32:34;;;;;;;41.60;29.67;;;;;;;12.14;68.56;99772.27;2291673;78;20937;-82
2021/06/04 04:35:35;;;;;;;100.65;71.17;;;;;;;12.38;68.06;99779.72;2291633;78;20929;-82
2021/06/04 04:38:36;;;;;;;21.60;13.40;;;;;;;12.71;68.03;99776.41;2280311;77;21011;-82
2021/06/04 04:41:37;;;;;;;30.70;11.45;;;;;;;13.03;67.37;99777.00;2249373;79;20937;-82
2021/06/04 04:44:39;;;;;;;12.75;10.60;;;;;;;13.35;66.96;99771.00;2249495;79;21004;-83
2021/06/04 04:47:39;;;;;;;16.42;10.50;;;;;;;13.63;66.79;99770.09;2249147;79;20971;-83
2021/06/04 04:50:41;;;;;;;14.50;10.10;;;;;;;13.97;66.30;99770.16;2248628;79;20988;-83
2021/06/04 04:53:42;;;;;;;25.70;11.25;;;;;;;14.27;66.35;99770.95;2249227;79;20951;-82
2021/06/04 04:56:43;;;;;;;17.60;10.43;;;;;;;14.56;66.11;99769.56;2249027;79;20993;-81
2021/06/04 04:59:44;;;;;;;21.52;10.43;;;;;;;14.89;65.13;99765.11;2248761;79;21067;-83
2021/06/04 05:02:45;;;;;;;11.25;9.08;;;;;;;15.27;64.72;99768.05;2249512;79;20998;-83
2021/06/04 05:05:46;;;;;;;14.00;9.68;;;;;;;15.66;63.67;99768.38;2249283;79;21234;-82
2021/06/04 05:08:47;;;;;;;16.95;9.48;;;;;;;16.05;63.10;99772.53;2249296;79;21063;-81
2021/06/04 05:11:48;;;;;;;51.30;9.40;;;;;;;16.43;62.16;99763.45;2249160;79;20909;-81
2021/06/04 05:14:49;;;;;;;10.18;7.90;;;;;;;16.75;60.51;99762.71;2249369;79;20992;-80
2021/06/04 05:17:50;;;;;;;15.00;7.72;;;;;;;17.05;60.52;99765.37;2249015;79;21011;-81
2021/06/04 05:20:51;;;;;;;19.35;8.45;;;;;;;17.41;59.41;99766.27;2249207;79;21011;-80
2021/06/04 05:23:54;;;;;;;58.80;10.13;;;;;;;17.78;58.16;99765.80;2249155;79;20983;-80
2021/06/04 05:26:54;;;;;;;8.08;5.80;;;;;;;18.57;57.16;99764.16;2248672;79;20984;-80
2021/06/04 05:29:55;;;;;;;51.95;9.60;;;;;;;18.93;54.94;99758.23;2248911;79;20925;-81
2021/06/04 05:32:56;;;;;;;23.65;7.65;;;;;;;19.10;53.77;99757.69;2249097;79;20976;-80
2021/06/04 05:35:57;;;;;;;13.68;6.00;;;;;;;19.20;53.16;99765.11;2248868;79;20968;-80
2021/06/04 05:38:58;;;;;;;11.95;5.30;;;;;;;19.36;52.18;99768.93;2258316;78;21060;-80
2021/06/04 05:42:00;;;;;;;146.22;14.83;;;;;;;19.96;52.30;99763.08;2281260;78;20988;-80
2021/06/04 05:45:02;;;;;;;42.50;7.58;;;;;;;20.07;50.92;99765.16;2281395;78;20930;-80
2021/06/04 05:48:03;;;;;;;18.82;5.72;;;;;;;20.73;50.39;99765.19;2281249;77;20917;-80
2021/06/04 05:51:04;;;;;;;10.45;4.90;;;;;;;21.05;49.16;99760.74;2281286;77;21306;-81
2021/06/04 05:54:05;;;;;;;21.52;4.65;;;;;;;21.35;47.95;99761.16;2281362;77;21305;-80
2021/06/04 05:57:06;;;;;;;44.93;7.53;;;;;;;21.78;46.82;99763.50;2281290;77;20965;-80
2021/06/04 06:00:07;;;;;;;57.48;9.95;;;;;;;21.98;45.19;99770.21;2281526;78;20910;-81
2021/06/04 06:03:07;;;;;;;10.48;3.60;;;;;;;22.36;43.94;99767.67;2281494;77;21006;-81
2021/06/04 06:06:10;;;;;;;38.55;6.85;;;;;;;22.73;43.79;99766.44;2281276;77;20970;-80
2021/06/04 06:09:11;;;;;;;15.50;4.78;;;;;;;22.99;42.27;99771.19;2281089;77;21033;-78
2021/06/04 06:12:12;;;;;;;17.00;5.00;;;;;;;23.24;40.06;99768.80;2281497;77;20950;-79
2021/06/04 06:15:13;;;;;;;13.25;4.28;;;;;;;23.45;40.35;99768.28;2281247;77;21021;-81
2021/06/04 06:18:14;;;;;;;8.83;4.20;;;;;;;23.68;39.82;99768.17;2280926;78;20953;-78
2021/06/04 06:21:15;;;;;;;11.97;3.90;;;;;;;23.81;37.91;99766.47;2280963;77;20993;-79
2021/06/04 06:24:16;;;;;;;8.10;3.55;;;;;;;23.87;37.50;99764.09;2281330;77;20930;-80
2021/06/04 06:27:17;;;;;;;9.73;3.08;;;;;;;24.04;37.04;99770.28;2280745;77;20958;-80
2021/06/04 06:30:18;;;;;;;10.53;3.35;;;;;;;24.19;36.58;99776.97;2281295;78;20958;-79
2021/06/04 06:33:19;;;;;;;12.15;3.62;;;;;;;24.35;36.27;99771.20;2281709;77;21025;-80
2021/06/04 06:36:22;;;;;;;7.67;3.45;;;;;;;24.55;35.37;99768.41;2281402;78;20990;-80
2021/06/04 06:39:24;;;;;;;5.37;2.90;;;;;;;24.71;35.88;99775.02;2269588;77;21067;-79
2021/06/04 06:42:26;;;;;;;7.43;3.30;;;;;;;24.81;34.88;99771.60;2249440;79;21503;-80
2021/06/04 06:45:29;;;;;;;5.28;2.58;;;;;;;24.88;34.60;99773.16;2249619;79;20995;-80
2021/06/04 06:48:29;;;;;;;3.65;2.90;;;;;;;25.08;33.93;99774.30;2249113;79;21023;-80
2021/06/04 06:51:33;;;;;;;3.80;3.08;;;;;;;25.09;33.38;99770.70;2249277;79;21000;-79
2021/06/04 06:54:35;;;;;;;8.83;3.63;;;;;;;24.87;33.14;99772.28;2249670;78;21341;-79
2021/06/04 06:57:35;;;;;;;5.70;3.30;;;;;;;24.98;32.99;99775.98;2249756;79;21020;-80
2021/06/04 07:00:36;;;;;;;14.23;3.45;;;;;;;25.13;32.64;99765.26;2249712;79;21328;-80
2021/06/04 07:03:38;;;;;;;4.67;3.27;;;;;;;25.29;31.83;99763.39;2249679;79;20960;-79
2021/06/04 07:06:38;;;;;;;9.85;3.58;;;;;;;25.40;31.44;99759.02;2249500;79;21327;-79
2021/06/04 07:09:40;;;;;;;3.25;2.80;;;;;;;25.55;31.06;99768.31;2249932;79;20967;-80
2021/06/04 07:12:41;;;;;;;3.37;3.08;;;;;;;25.59;31.27;99767.28;2249462;79;20975;-80
2021/06/04 07:15:42;;;;;;;6.78;3.30;;;;;;;25.59;31.12;99774.84;2249459;79;20928;-80
2021/06/04 07:18:43;;;;;;;4.90;2.98;;;;;;;25.55;30.59;99771.86;2249226;79;21001;-80
2021/06/04 07:21:45;;;;;;;4.95;3.08;;;;;;;25.62;30.70;99771.19;2249755;79;20975;-80
2021/06/04 07:24:46;;;;;;;13.58;3.50;;;;;;;25.65;29.48;99776.42;2249852;79;21028;-80
2021/06/04 07:27:47;;;;;;;4.10;3.05;;;;;;;25.67;30.75;99779.48;2249980;79;20916;-79
2021/06/04 07:30:48;;;;;;;4.62;3.17;;;;;;;25.86;29.41;99779.72;2248767;79;20912;-80
2021/06/04 07:33:49;;;;;;;10.40;2.80;;;;;;;25.78;28.91;99778.23;2249568;79;20927;-80
2021/06/04 07:36:50;;;;;;;5.80;3.08;;;;;;;26.01;29.85;99781.88;2249503;79;20998;-81
2021/06/04 07:39:51;;;;;;;6.72;2.90;;;;;;;26.50;30.00;99782.75;2263180;77;21101;-80
2021/06/04 07:42:52;;;;;;;3.45;3.05;;;;;;;26.71;27.98;99777.49;2281831;77;20950;-80
2021/06/04 07:45:53;;;;;;;10.88;4.42;;;;;;;26.62;25.39;99778.26;2281914;77;21004;-80
2021/06/04 07:48:54;;;;;;;25.92;4.53;;;;;;;26.35;27.61;99769.95;2281994;78;20985;-81
2021/06/04 07:51:56;;;;;;;8.55;3.10;;;;;;;26.47;27.67;99777.52;2281467;77;20985;-80
2021/06/04 07:54:59;;;;;;;8.38;3.77;;;;;;;26.63;27.47;99770.63;2281714;78;20969;-80
2021/06/04 07:57:59;;;;;;;9.95;3.90;;;;;;;26.36;27.72;99772.16;2281752;77;21369;-79
2021/06/04 08:01:02;;;;;;;4.80;2.72;;;;;;;25.82;28.18;99766.04;2281679;77;20986;-80
2021/06/04 08:04:03;;;;;;;4.83;2.50;;;;;;;26.14;27.82;99771.59;2281927;77;20994;-78
2021/06/04 08:07:04;;;;;;;9.53;3.40;;;;;;;26.36;27.39;99766.34;2281949;78;21187;-80
2021/06/04 08:10:05;;;;;;;8.90;3.75;;;;;;;26.38;26.75;99772.97;2281584;78;20989;-79
2021/06/04 08:13:07;;;;;;;5.80;3.05;;;;;;;26.57;26.11;99779.37;2280667;77;20961;-79
2021/06/04 08:16:08;;;;;;;5.95;3.30;;;;;;;26.64;25.63;99778.20;2281398;77;20978;-81
2021/06/04 08:19:09;;;;;;;2.95;2.45;;;;;;;26.86;26.55;99774.20;2281523;77;21002;-79
2021/06/04 08:22:10;;;;;;;5.42;3.10;;;;;;;26.99;25.35;99773.31;2281649;77;20969;-79
2021/06/04 08:25:11;;;;;;;4.22;2.75;;;;;;;27.00;25.60;99778.61;2281606;77;20992;-79
2021/06/04 08:28:12;;;;;;;3.08;2.65;;;;;;;27.05;24.83;99781.98;2281375;77;20957;-80
2021/06/04 08:31:12;;;;;;;7.37;3.10;;;;;;;27.12;24.02;99777.23;2281598;78;20926;-79
2021/06/04 08:34:14;;;;;;;5.55;3.05;;;;;;;26.90;24.34;99778.55;2281615;77;20973;-79
2021/06/04 08:37:15;;;;;;;3.72;2.80;;;;;;;26.41;24.80;99784.44;2280949;77;20969;-79
2021/06/04 08:40:16;;;;;;;23.47;3.92;;;;;;;26.58;25.66;99768.60;2281262;77;21013;-80
2021/06/04 08:43:17;;;;;;;12.15;3.45;;;;;;;26.70;24.83;99772.60;2281728;78;20945;-79
2021/06/04 08:46:18;;;;;;;11.65;3.40;;;;;;;26.83;24.38;99764.95;2282110;78;20974;-80
2021/06/04 08:49:19;;;;;;;13.38;3.80;;;;;;;26.72;24.32;99772.55;2281969;78;21009;-81
2021/06/04 08:52:20;;;;;;;4.87;3.10;;;;;;;26.46;24.97;99765.05;2281935;78;21010;-77
2021/06/04 08:55:21;;;;;;;9.10;3.30;;;;;;;26.12;24.93;99769.91;2281539;78;20950;-79
2021/06/04 08:58:22;;;;;;;10.88;2.90;;;;;;;25.88;25.75;99772.51;2281517;77;21016;-78
2021/06/04 09:01:23;;;;;;;12.45;3.80;;;;;;;26.11;25.84;99767.69;2281476;77;21016;-80
2021/06/04 09:04:24;;;;;;;9.40;3.80;;;;;;;26.38;25.20;99768.95;2281561;77;21052;-79
2021/06/04 09:07:25;;;;;;;9.80;3.58;;;;;;;25.98;25.59;99768.57;2281347;78;20957;-79
2021/06/04 09:10:26;;;;;;;7.65;3.37;;;;;;;25.44;26.29;99758.45;2281410;77;20986;-78
2021/06/04 09:13:30;;;;;;;10.58;3.25;;;;;;;25.53;26.82;99758.14;2281113;78;20942;-79
2021/06/04 09:16:30;;;;;;;10.63;3.90;;;;;;;25.51;27.19;99754.65;2281354;77;21021;-80
2021/06/04 09:19:31;;;;;;;4.28;3.20;;;;;;;25.20;27.37;99749.47;2280539;78;20922;-79
2021/06/04 09:22:32;;;;;;;5.08;3.47;;;;;;;25.44;27.46;99747.77;2281084;78;20954;-79
2021/06/04 09:25:33;;;;;;;7.78;3.50;;;;;;;25.98;27.06;99745.83;2281383;78;20958;-79
2021/06/04 09:28:34;;;;;;;6.40;3.17;;;;;;;26.49;26.42;99742.19;2281444;78;20983;-80
2021/06/04 09:31:35;;;;;;;4.05;3.17;;;;;;;26.68;25.58;99740.13;2281509;77;21390;-79
2021/06/04 09:34:36;;;;;;;6.12;2.83;;;;;;;26.91;24.92;99726.70;2281805;77;20990;-80
2021/06/04 09:37:38;;;;;;;2.95;2.52;;;;;;;27.16;24.91;99731.48;2281984;78;21002;-79
2021/06/04 09:40:40;;;;;;;6.05;2.80;;;;;;;27.14;24.79;99725.79;2263907;78;21023;-79
2021/06/04 09:43:41;;;;;;;6.45;3.00;;;;;;;26.58;25.43;99728.44;2249889;79;20901;-80
2021/06/04 09:46:42;;;;;;;4.30;2.72;;;;;;;26.52;25.49;99734.50;2249792;79;21312;-81
2021/06/04 09:49:43;;;;;;;3.77;2.90;;;;;;;26.75;25.01;99734.46;2249910;79;20924;-79
2021/06/04 09:52:44;;;;;;;8.45;3.65;;;;;;;26.42;24.97;99729.97;2249408;79;20935;-79
2021/06/04 09:55:45;;;;;;;11.28;3.40;;;;;;;26.51;24.56;99729.61;2249601;79;20963;-79
2021/06/04 09:58:46;;;;;;;5.97;3.05;;;;;;;26.79;24.41;99729.39;2249172;79;20972;-80
2021/06/04 10:01:47;;;;;;;6.25;2.90;;;;;;;26.50;24.45;99723.84;2249853;79;21046;-79
2021/06/04 10:04:48;;;;;;;4.42;2.90;;;;;;;26.38;24.73;99725.67;2249948;79;20984;-79
2021/06/04 10:07:49;;;;;;;4.45;2.62;;;;;;;26.34;24.60;99726.25;2249527;79;21340;-79
2021/06/04 10:10:50;;;;;;;9.50;3.25;;;;;;;26.89;24.82;99733.94;2249188;79;21356;-79
2021/06/04 10:13:51;;;;;;;9.35;2.60;;;;;;;27.24;24.21;99726.68;2249667;79;21322;-78
2021/06/04 10:19:55;;;;;;;7.50;3.10;;;;;;;27.61;23.56;99718.42;2227791;79;20907;-79
2021/06/04 10:22:56;;;;;;;7.85;3.10;;;;;;;27.52;23.09;99722.81;2249477;79;20972;-79
2021/06/04 10:25:57;;;;;;;4.83;3.27;;;;;;;27.47;23.70;99727.03;2249561;79;20908;-79
2021/06/04 10:28:58;;;;;;;10.98;3.15;;;;;;;27.59;23.43;99725.63;2249321;79;20940;-78
2021/06/04 10:31:59;;;;;;;7.03;3.30;;;;;;;27.59;23.35;99717.11;2249228;79;20903;-79
2021/06/04 10:35:00;;;;;;;8.13;2.98;;;;;;;27.77;23.37;99711.47;2249095;79;20937;-79
2021/06/04 10:38:01;;;;;;;8.10;3.00;;;;;;;27.86;22.78;99705.69;2249238;79;20941;-79
2021/06/04 10:41:06;;;;;;;5.00;2.87;;;;;;;27.98;23.37;99704.73;2274149;77;21028;-79
2021/06/04 10:44:05;;;;;;;8.40;2.92;;;;;;;27.96;22.84;99699.91;2291515;77;20956;-78
2021/06/04 10:47:06;;;;;;;16.57;3.15;;;;;;;27.80;23.18;99691.69;2291160;78;20998;-78
2021/06/04 10:50:07;;;;;;;5.50;2.42;;;;;;;27.49;23.62;99701.03;2291236;78;20884;-79
2021/06/04 10:53:08;;;;;;;8.53;2.92;;;;;;;27.61;23.58;99694.28;2291368;78;20984;-79
2021/06/04 10:56:09;;;;;;;8.80;2.85;;;;;;;27.75;23.54;99681.16;2291371;78;20944;-79
2021/06/04 10:59:10;;;;;;;5.40;3.10;;;;;;;27.77;23.36;99685.12;2291675;78;20967;-80
2021/06/04 11:02:11;;;;;;;3.90;2.60;;;;;;;27.84;23.65;99679.41;2291410;78;21331;-79
2021/06/04 11:05:12;;;;;;;5.33;3.02;;;;;;;27.97;23.54;99680.19;2291412;78;21047;-79
2021/06/04 11:08:13;;;;;;;4.00;3.00;;;;;;;28.12;23.23;99679.47;2291103;78;20940;-79
2021/06/04 11:11:14;;;;;;;3.58;2.70;;;;;;;28.12;22.95;99679.47;2291192;78;21015;-79
2021/06/04 11:14:17;;;;;;;9.25;2.90;;;;;;;28.13;23.11;99679.88;2291358;78;20943;-79
2021/06/04 11:17:17;;;;;;;5.53;2.47;;;;;;;28.00;22.86;99674.67;2291411;77;21023;-80
2021/06/04 11:20:18;;;;;;;6.42;2.40;;;;;;;27.88;23.36;99675.64;2291022;78;20932;-79
2021/06/04 11:23:19;;;;;;;4.40;2.58;;;;;;;27.93;22.88;99670.53;2291203;78;21008;-79
2021/06/04 11:26:20;;;;;;;4.65;2.77;;;;;;;27.86;22.95;99668.60;2290907;78;20947;-79
2021/06/04 11:29:21;;;;;;;3.87;2.87;;;;;;;27.86;22.64;99673.97;2291255;78;20956;-79
2021/06/04 11:32:22;;;;;;;4.10;2.70;;;;;;;28.08;22.78;99674.72;2291540;78;20963;-79
2021/06/04 11:35:25;;;;;;;4.28;2.58;;;;;;;28.09;22.25;99668.88;2291362;78;20928;-79
2021/06/04 11:38:28;;;;;;;7.20;2.55;;;;;;;28.28;22.59;99663.08;2290498;77;21039;-78
2021/06/04 11:41:30;;;;;;;11.68;2.90;;;;;;;28.47;22.25;99665.27;2283251;78;21021;-79
2021/06/04 11:44:31;;;;;;;8.38;2.60;;;;;;;28.51;22.83;99660.16;2280482;78;21007;-79
2021/06/04 11:47:32;;;;;;;6.67;2.80;;;;;;;28.52;21.99;99661.89;2281142;77;21426;-79
2021/06/04 11:50:33;;;;;;;8.90;2.72;;;;;;;28.35;22.00;99664.52;2281298;78;20973;-80
2021/06/04 11:53:34;;;;;;;11.60;2.60;;;;;;;28.38;21.92;99663.03;2281293;78;21329;-79
2021/06/04 11:56:35;;;;;;;5.08;2.25;;;;;;;28.46;22.10;99664.01;2281270;77;20961;-80
2021/06/04 11:59:36;;;;;;;11.60;2.70;;;;;;;28.77;21.91;99651.31;2281417;77;20934;-80
2021/06/04 12:02:37;;;;;;;2.45;2.20;;;;;;;29.09;21.48;99655.09;2281168;77;20945;-79
2021/06/04 12:05:38;;;;;;;11.22;2.52;;;;;;;29.30;21.26;99657.16;2281256;77;21362;-79
2021/06/04 12:08:39;;;;;;;6.85;2.92;;;;;;;29.32;20.21;99654.78;2281160;78;20938;-79
2021/06/04 12:11:41;;;;;;;7.25;2.90;;;;;;;29.28;21.12;99649.64;2281308;77;20966;-79
2021/06/04 12:14:42;;;;;;;5.12;2.87;;;;;;;29.30;21.46;99657.16;2281427;78;20970;-79
2021/06/04 12:17:43;;;;;;;5.00;2.60;;;;;;;29.17;21.73;99643.00;2281041;77;20934;-79
2021/06/04 12:20:44;;;;;;;5.97;2.95;;;;;;;29.17;21.42;99641.66;2281525;78;20938;-79
2021/06/04 12:23:45;;;;;;;10.15;3.42;;;;;;;29.27;21.50;99646.56;2281512;77;20930;-79
2021/06/04 12:26:46;;;;;;;4.28;2.83;;;;;;;29.09;21.36;99639.84;2281476;77;20985;-78
2021/06/04 12:29:47;;;;;;;4.53;2.45;;;;;;;28.99;22.31;99643.95;2281724;78;21025;-79
2021/06/04 12:32:48;;;;;;;4.85;2.58;;;;;;;29.11;22.26;99631.22;2281283;78;20926;-79
2021/06/04 12:35:49;;;;;;;3.52;2.58;;;;;;;29.15;22.39;99626.56;2281362;78;20938;-79
2021/06/04 12:38:50;;;;;;;6.45;2.98;;;;;;;29.18;22.46;99620.55;2281444;78;21005;-79
2021/06/04 12:41:51;;;;;;;5.10;2.67;;;;;;;29.09;22.17;99614.78;2281070;77;21036;-79
2021/06/04 12:44:53;;;;;;;3.27;2.60;;;;;;;28.96;21.98;99616.36;2281692;78;20951;-79
2021/06/04 12:47:54;;;;;;;3.10;2.52;;;;;;;28.86;22.04;99613.27;2281748;77;21010;-79
2021/06/04 12:50:55;;;;;;;2.83;2.50;;;;;;;28.85;21.70;99612.87;2281509;78;20954;-78
2021/06/04 12:53:56;;;;;;;3.95;2.40;;;;;;;28.89;21.96;99610.91;2281461;78;20945;-79
2021/06/04 12:56:57;;;;;;;3.37;2.55;;;;;;;28.89;21.69;99606.40;2281227;78;20977;-79
2021/06/04 12:59:58;;;;;;;6.97;2.60;;;;;;;28.96;21.93;99602.92;2281769;77;20994;-79
2021/06/04 13:02:59;;;;;;;4.92;2.62;;;;;;;29.01;21.90;99603.08;2281623;77;21041;-79
2021/06/04 13:06:00;;;;;;;4.10;2.60;;;;;;;29.15;22.19;99603.23;2281572;77;21382;-78
2021/06/04 13:09:01;;;;;;;3.02;2.52;;;;;;;29.28;21.89;99606.63;2281854;78;20953;-79
2021/06/04 13:12:02;;;;;;;2.47;2.27;;;;;;;29.43;21.94;99594.61;2281260;77;21024;-78
2021/06/04 13:15:03;;;;;;;3.83;2.42;;;;;;;29.53;21.89;99596.36;2281800;77;21255;-79
2021/06/04 13:18:04;;;;;;;3.50;2.55;;;;;;;29.51;21.63;99598.27;2281382;77;20992;-79
2021/06/04 13:21:05;;;;;;;2.35;2.15;;;;;;;29.54;21.31;99590.03;2281339;78;20969;-78
2021/06/04 13:24:07;;;;;;;4.05;2.55;;;;;;;29.51;21.78;99600.95;2281196;77;21002;-79
2021/06/04 13:27:08;;;;;;;3.85;2.27;;;;;;;29.54;21.40;99594.55;2281573;77;20978;-78
2021/06/04 13:30:09;;;;;;;4.35;2.22;;;;;;;29.30;20.94;99600.69;2281266;78;20915;-80
2021/06/04 13:33:10;;;;;;;3.92;2.22;;;;;;;29.16;20.87;99600.94;2281801;78;20921;-79
2021/06/04 13:36:11;;;;;;;4.50;2.33;;;;;;;29.12;20.94;99603.88;2281770;78;20992;-79
2021/06/04 13:39:11;;;;;;;3.92;2.27;;;;;;;29.32;21.08;99601.48;2281644;78;21025;-78
2021/06/04 13:42:13;;;;;;;8.23;2.65;;;;;;;29.18;20.71;99596.35;2257523;77;21004;-78
2021/06/04 13:45:14;;;;;;;4.28;2.50;;;;;;;29.04;21.25;99598.89;2249060;79;20959;-79
2021/06/04 13:48:15;;;;;;;5.45;2.17;;;;;;;28.98;21.55;99595.66;2249506;79;20967;-79
2021/06/04 13:51:19;;;;;;;10.98;3.60;;;;;;;29.08;21.88;99591.06;2249533;79;20925;-79
2021/06/04 13:54:20;;;;;;;2.90;2.60;;;;;;;29.22;21.69;99577.38;2249298;79;20970;-79
2021/06/04 13:57:21;;;;;;;9.25;2.70;;;;;;;29.15;21.82;99580.86;2249458;79;20975;-80
2021/06/04 14:00:24;;;;;;;3.65;2.70;;;;;;;29.28;21.75;99570.33;2249108;79;21003;-79
2021/06/04 14:03:25;;;;;;;2.35;2.15;;;;;;;29.23;21.76;99581.80;2249377;79;20939;-79
2021/06/04 14:06:26;;;;;;;5.05;2.80;;;;;;;29.32;21.75;99578.15;2249272;79;21011;-78
2021/06/04 14:09:32;;;;;;;3.20;2.30;;;;;;;29.37;21.57;99571.18;2249344;79;20932;-79